createdAt,value
2018-07-16T00:00:39.758Z,18.16
2018-07-16T00:01:39.720Z,18.21
2018-07-16T00:02:39.676Z,18.19
2018-07-16T00:03:39.633Z,18.18
2018-07-16T00:04:39.592Z,18.18
2018-07-16T00:05:39.552Z,18.18
2018-07-16T00:06:39.510Z,18.18
2018-07-16T00:07:39.469Z,18.06
2018-07-16T00:08:39.426Z,18.19
2018-07-16T00:09:39.384Z,18.12
2018-07-16T00:10:39.344Z,18.16
2018-07-16T00:11:39.303Z,18.09
2018-07-16T00:12:39.260Z,18.06
2018-07-16T00:13:39.221Z,18.08
2018-07-16T00:14:39.250Z,18.03
2018-07-16T00:15:39.140Z,18.12
2018-07-16T00:16:39.095Z,18.09
2018-07-16T00:17:39.055Z,17.98
2018-07-16T00:18:39.017Z,18.08
2018-07-16T00:19:38.975Z,17.98
2018-07-16T00:20:38.936Z,17.95
2018-07-16T00:21:38.890Z,18.05
2018-07-16T00:22:38.849Z,18.05
2018-07-16T00:23:38.808Z,18.09
2018-07-16T00:24:38.768Z,17.94
2018-07-16T00:25:38.727Z,17.93
2018-07-16T00:26:38.686Z,17.98
2018-07-16T00:27:38.650Z,17.91
2018-07-16T00:28:38.603Z,17.91
2018-07-16T00:29:38.565Z,17.90
2018-07-16T00:30:38.521Z,17.80
2018-07-16T00:31:38.482Z,17.80
2018-07-16T00:32:38.439Z,17.82
2018-07-16T00:33:38.396Z,17.86
2018-07-16T00:34:38.354Z,17.79
2018-07-16T00:35:38.314Z,17.79
2018-07-16T00:36:38.270Z,17.78
2018-07-16T00:37:38.235Z,17.78
2018-07-16T00:38:38.189Z,17.69
2018-07-16T00:39:38.159Z,17.73
2018-07-16T00:40:38.118Z,17.69
2018-07-16T00:41:38.068Z,17.72
2018-07-16T00:42:38.026Z,17.75
2018-07-16T00:43:37.982Z,17.66
2018-07-16T00:44:37.945Z,17.69
2018-07-16T00:45:37.903Z,17.69
2018-07-16T00:46:37.865Z,17.66
2018-07-16T00:47:37.817Z,17.65
2018-07-16T00:48:37.776Z,17.66
2018-07-16T00:49:37.736Z,17.63
2018-07-16T00:50:37.700Z,17.56
2018-07-16T00:51:37.652Z,17.63
2018-07-16T00:52:37.612Z,17.65
2018-07-16T00:53:37.570Z,17.65
2018-07-16T00:54:37.529Z,17.66
2018-07-16T00:55:37.517Z,17.59
2018-07-16T00:56:37.447Z,17.65
2018-07-16T00:57:37.423Z,17.63
2018-07-16T00:58:37.366Z,17.68
2018-07-16T00:59:37.347Z,17.57
2018-07-16T01:00:37.278Z,17.59
2018-07-16T01:01:37.239Z,17.57
2018-07-16T01:02:37.199Z,17.59
2018-07-16T01:03:37.158Z,17.59
2018-07-16T01:04:37.112Z,17.69
2018-07-16T01:05:37.073Z,17.59
2018-07-16T01:06:37.032Z,17.66
2018-07-16T01:07:36.996Z,17.57
2018-07-16T01:08:36.951Z,17.59
2018-07-16T01:09:36.912Z,17.59
2018-07-16T01:10:36.868Z,17.57
2018-07-16T01:11:36.829Z,17.57
2018-07-16T01:12:36.789Z,17.59
2018-07-16T01:13:36.742Z,17.59
2018-07-16T01:14:36.704Z,17.60
2018-07-16T01:15:36.660Z,17.59
2018-07-16T01:16:36.617Z,17.71
2018-07-16T01:17:36.579Z,17.60
2018-07-16T01:18:36.540Z,17.68
2018-07-16T01:19:36.491Z,17.66
2018-07-16T01:20:36.451Z,17.53
2018-07-16T01:21:36.415Z,17.59
2018-07-16T01:22:36.371Z,17.56
2018-07-16T01:23:36.326Z,17.59
2018-07-16T01:24:36.307Z,17.56
2018-07-16T01:25:36.244Z,17.60
2018-07-16T01:26:36.206Z,17.57
2018-07-16T01:27:36.164Z,17.60
2018-07-16T01:28:36.124Z,17.54
2018-07-16T01:29:36.080Z,17.57
2018-07-16T01:30:36.039Z,17.54
2018-07-16T01:31:35.999Z,17.57
2018-07-16T01:32:35.956Z,17.52
2018-07-16T01:33:35.917Z,17.59
2018-07-16T01:34:35.874Z,17.53
2018-07-16T01:35:35.829Z,17.57
2018-07-16T01:36:35.788Z,17.56
2018-07-16T01:37:35.752Z,17.49
2018-07-16T01:38:35.706Z,17.56
2018-07-16T01:39:35.663Z,17.54
2018-07-16T01:40:35.626Z,17.49
2018-07-16T01:41:35.586Z,17.49
2018-07-16T01:42:35.542Z,17.54
2018-07-16T01:43:35.498Z,17.54
2018-07-16T01:44:35.458Z,17.50
2018-07-16T01:45:35.416Z,17.44
2018-07-16T01:46:35.378Z,17.49
2018-07-16T01:47:35.338Z,17.44
2018-07-16T01:48:35.291Z,17.50
2018-07-16T01:49:35.249Z,17.50
2018-07-16T01:50:35.211Z,17.49
2018-07-16T01:51:35.172Z,17.49
2018-07-16T01:52:35.125Z,17.46
2018-07-16T01:53:35.087Z,17.46
2018-07-16T01:54:35.045Z,17.49
2018-07-16T01:55:35.004Z,17.54
2018-07-16T01:56:34.965Z,17.46
2018-07-16T01:57:34.917Z,17.44
2018-07-16T01:58:34.878Z,17.44
2018-07-16T01:59:34.835Z,17.46
2018-07-16T02:00:34.796Z,17.47
2018-07-16T02:01:34.751Z,17.44
2018-07-16T02:02:34.711Z,17.47
2018-07-16T02:03:34.670Z,17.53
2018-07-16T02:04:34.628Z,17.50
2018-07-16T02:05:34.587Z,17.47
2018-07-16T02:06:34.547Z,17.41
2018-07-16T02:07:34.504Z,17.52
2018-07-16T02:08:34.463Z,17.52
2018-07-16T02:09:34.422Z,17.44
2018-07-16T02:10:34.381Z,17.46
2018-07-16T02:11:34.337Z,17.47
2018-07-16T02:12:34.299Z,17.42
2018-07-16T02:13:34.256Z,17.42
2018-07-16T02:14:34.211Z,17.42
2018-07-16T02:15:34.171Z,17.41
2018-07-16T02:16:34.132Z,17.41
2018-07-16T02:17:34.088Z,17.39
2018-07-16T02:18:34.049Z,17.32
2018-07-16T02:19:34.009Z,17.42
2018-07-16T02:20:33.965Z,17.31
2018-07-16T02:21:33.922Z,17.30
2018-07-16T02:22:33.881Z,17.28
2018-07-16T02:23:33.843Z,17.24
2018-07-16T02:24:33.800Z,17.30
2018-07-16T02:25:33.756Z,17.32
2018-07-16T02:26:33.718Z,17.34
2018-07-16T02:27:33.678Z,17.35
2018-07-16T02:28:33.634Z,17.34
2018-07-16T02:29:33.590Z,17.23
2018-07-16T02:30:33.550Z,17.30
2018-07-16T02:31:33.508Z,17.37
2018-07-16T02:32:33.467Z,17.32
2018-07-16T02:33:33.426Z,17.30
2018-07-16T02:34:33.385Z,17.27
2018-07-16T02:35:33.341Z,17.35
2018-07-16T02:36:33.302Z,17.28
2018-07-16T02:37:33.260Z,17.32
2018-07-16T02:38:33.218Z,17.20
2018-07-16T02:39:33.174Z,17.23
2018-07-16T02:40:33.136Z,17.31
2018-07-16T02:41:33.094Z,17.27
2018-07-16T02:42:33.050Z,17.23
2018-07-16T02:43:33.010Z,17.22
2018-07-16T02:44:32.970Z,17.24
2018-07-16T02:45:32.928Z,17.17
2018-07-16T02:46:32.883Z,17.16
2018-07-16T02:47:32.854Z,17.16
2018-07-16T02:48:32.806Z,17.19
2018-07-16T02:49:32.765Z,17.17
2018-07-16T02:50:32.720Z,17.16
2018-07-16T02:51:32.681Z,17.07
2018-07-16T02:52:32.637Z,17.09
2018-07-16T02:53:32.597Z,17.07
2018-07-16T02:54:32.550Z,17.09
2018-07-16T02:55:32.515Z,17.10
2018-07-16T02:56:32.652Z,17.10
2018-07-16T02:57:32.429Z,17.05
2018-07-16T02:58:32.389Z,16.99
2018-07-16T02:59:32.365Z,16.98
2018-07-16T03:00:32.312Z,17.01
2018-07-16T03:01:32.262Z,17.01
2018-07-16T03:02:32.220Z,16.95
2018-07-16T03:03:32.174Z,17.07
2018-07-16T03:04:32.133Z,16.98
2018-07-16T03:05:32.093Z,16.98
2018-07-16T03:06:32.053Z,16.98
2018-07-16T03:07:32.007Z,17.01
2018-07-16T03:08:31.970Z,16.97
2018-07-16T03:09:31.924Z,17.02
2018-07-16T03:10:31.885Z,16.92
2018-07-16T03:11:31.844Z,17.01
2018-07-16T03:12:31.802Z,16.87
2018-07-16T03:13:31.759Z,16.98
2018-07-16T03:14:31.715Z,17.01
2018-07-16T03:15:31.674Z,16.92
2018-07-16T03:16:31.638Z,16.87
2018-07-16T03:17:31.596Z,16.97
2018-07-16T03:18:31.552Z,16.95
2018-07-16T03:19:31.510Z,16.94
2018-07-16T03:20:31.467Z,16.84
2018-07-16T03:21:31.435Z,16.86
2018-07-16T03:22:31.384Z,16.84
2018-07-16T03:23:31.342Z,16.91
2018-07-16T03:24:31.299Z,17.01
2018-07-16T03:25:31.262Z,16.86
2018-07-16T03:26:31.217Z,16.83
2018-07-16T03:27:31.174Z,16.89
2018-07-16T03:28:31.135Z,16.84
2018-07-16T03:29:31.091Z,16.94
2018-07-16T03:30:31.049Z,16.83
2018-07-16T03:31:31.007Z,16.82
2018-07-16T03:32:30.969Z,16.87
2018-07-16T03:33:31.390Z,16.84
2018-07-16T03:34:30.883Z,16.79
2018-07-16T03:35:30.846Z,16.72
2018-07-16T03:36:30.796Z,16.82
2018-07-16T03:37:30.760Z,16.74
2018-07-16T03:38:30.713Z,16.82
2018-07-16T03:39:30.671Z,16.79
2018-07-16T03:40:30.632Z,16.73
2018-07-16T03:41:30.589Z,16.74
2018-07-16T03:42:30.546Z,16.76
2018-07-16T03:43:30.509Z,16.73
2018-07-16T03:44:30.464Z,16.79
2018-07-16T03:45:30.421Z,16.72
2018-07-16T03:46:30.378Z,16.72
2018-07-16T03:47:30.335Z,16.65
2018-07-16T03:48:30.297Z,16.66
2018-07-16T03:49:30.256Z,16.68
2018-07-16T03:50:30.212Z,16.57
2018-07-16T03:51:30.167Z,16.61
2018-07-16T03:52:30.129Z,16.58
2018-07-16T03:53:30.090Z,16.62
2018-07-16T03:54:30.274Z,16.57
2018-07-16T03:55:30.008Z,16.58
2018-07-16T03:56:29.962Z,16.55
2018-07-16T03:57:29.919Z,16.59
2018-07-16T03:58:29.876Z,16.64
2018-07-16T03:59:29.834Z,16.59
2018-07-16T04:00:29.797Z,16.59
2018-07-16T04:01:29.761Z,16.59
2018-07-16T04:02:29.864Z,16.57
2018-07-16T04:03:29.667Z,16.54
2018-07-16T04:04:29.625Z,16.59
2018-07-16T04:05:29.586Z,16.59
2018-07-16T04:06:29.544Z,16.55
2018-07-16T04:07:29.497Z,16.51
2018-07-16T04:08:29.462Z,16.62
2018-07-16T04:09:29.416Z,16.51
2018-07-16T04:10:29.373Z,16.59
2018-07-16T04:11:29.330Z,16.58
2018-07-16T04:12:29.288Z,16.61
2018-07-16T04:13:29.247Z,16.61
2018-07-16T04:14:29.205Z,16.61
2018-07-16T04:15:29.165Z,16.62
2018-07-16T04:16:29.124Z,16.59
2018-07-16T04:17:29.087Z,16.61
2018-07-16T04:18:29.037Z,16.61
2018-07-16T04:19:29.003Z,16.55
2018-07-16T04:20:29.006Z,16.58
2018-07-16T04:21:28.914Z,16.59
2018-07-16T04:22:28.872Z,16.55
2018-07-16T04:23:28.827Z,16.61
2018-07-16T04:24:28.791Z,16.62
2018-07-16T04:25:28.746Z,16.68
2018-07-16T04:26:28.704Z,16.68
2018-07-16T04:27:28.660Z,16.64
2018-07-16T04:28:28.620Z,16.65
2018-07-16T04:29:28.579Z,16.66
2018-07-16T04:30:28.535Z,16.76
2018-07-16T04:31:28.491Z,16.80
2018-07-16T04:32:28.454Z,16.72
2018-07-16T04:33:28.408Z,16.69
2018-07-16T04:34:28.369Z,16.76
2018-07-16T04:35:28.324Z,16.72
2018-07-16T04:36:28.283Z,16.80
2018-07-16T04:37:28.244Z,16.84
2018-07-16T04:38:28.201Z,16.82
2018-07-16T04:39:28.160Z,16.82
2018-07-16T04:40:28.117Z,16.79
2018-07-16T04:41:28.074Z,16.84
2018-07-16T04:42:28.032Z,16.82
2018-07-16T04:43:27.992Z,16.87
2018-07-16T04:44:27.947Z,16.92
2018-07-16T04:45:27.906Z,16.86
2018-07-16T04:46:27.869Z,16.86
2018-07-16T04:47:27.822Z,16.95
2018-07-16T04:48:27.781Z,16.95
2018-07-16T04:49:27.738Z,17.02
2018-07-16T04:50:27.700Z,17.01
2018-07-16T04:51:27.661Z,16.99
2018-07-16T04:52:27.615Z,16.92
2018-07-16T04:53:27.578Z,17.04
2018-07-16T04:54:27.531Z,17.09
2018-07-16T04:55:27.487Z,17.09
2018-07-16T04:56:27.452Z,17.13
2018-07-16T04:57:27.406Z,17.13
2018-07-16T04:58:27.377Z,17.17
2018-07-16T04:59:27.323Z,17.17
2018-07-16T05:00:27.283Z,17.19
2018-07-16T05:01:27.237Z,17.27
2018-07-16T05:02:27.195Z,17.22
2018-07-16T05:03:27.154Z,17.23
2018-07-16T05:04:27.116Z,17.34
2018-07-16T05:05:27.070Z,17.32
2018-07-16T05:06:27.028Z,17.31
2018-07-16T05:07:26.993Z,17.37
2018-07-16T05:08:26.945Z,17.28
2018-07-16T05:09:26.903Z,17.37
2018-07-16T05:10:26.862Z,17.44
2018-07-16T05:11:26.825Z,17.49
2018-07-16T05:12:26.777Z,17.47
2018-07-16T05:13:26.745Z,17.47
2018-07-16T05:14:26.696Z,17.57
2018-07-16T05:15:26.654Z,17.53
2018-07-16T05:16:26.614Z,17.54
2018-07-16T05:17:26.573Z,17.53
2018-07-16T05:18:26.670Z,17.63
2018-07-16T05:19:26.488Z,17.66
2018-07-16T05:20:26.450Z,17.66
2018-07-16T05:21:26.407Z,17.73
2018-07-16T05:22:26.364Z,17.73
2018-07-16T05:23:26.325Z,17.75
2018-07-16T05:24:26.288Z,17.78
2018-07-16T05:25:26.241Z,17.75
2018-07-16T05:26:26.196Z,17.79
2018-07-16T05:27:26.155Z,17.80
2018-07-16T05:28:26.115Z,17.80
2018-07-16T05:29:26.075Z,17.88
2018-07-16T05:30:26.036Z,17.88
2018-07-16T05:31:26.001Z,17.93
2018-07-16T05:32:26.299Z,17.95
2018-07-16T05:33:25.906Z,17.91
2018-07-16T05:34:25.865Z,18.00
2018-07-16T05:35:25.821Z,18.08
2018-07-16T05:36:25.782Z,18.05
2018-07-16T05:37:25.739Z,18.05
2018-07-16T05:38:25.700Z,18.03
2018-07-16T05:39:25.658Z,18.16
2018-07-16T05:40:25.615Z,18.08
2018-07-16T05:41:25.574Z,18.06
2018-07-16T05:42:25.537Z,18.18
2018-07-16T05:43:25.495Z,18.23
2018-07-16T05:44:25.452Z,18.26
2018-07-16T05:45:25.410Z,18.26
2018-07-16T05:46:25.370Z,18.28
2018-07-16T05:47:25.328Z,18.30
2018-07-16T05:48:25.285Z,18.42
2018-07-16T05:49:25.243Z,18.42
2018-07-16T05:50:25.204Z,18.37
2018-07-16T05:51:25.161Z,18.41
2018-07-16T05:52:25.124Z,18.57
2018-07-16T05:53:25.080Z,18.46
2018-07-16T05:54:25.085Z,18.58
2018-07-16T05:55:24.997Z,18.61
2018-07-16T05:56:24.956Z,18.52
2018-07-16T05:57:24.918Z,18.70
2018-07-16T05:58:24.874Z,18.67
2018-07-16T05:59:24.832Z,18.81
2018-07-16T06:00:24.792Z,18.74
2018-07-16T06:01:24.749Z,18.74
2018-07-16T06:02:24.709Z,18.83
2018-07-16T06:03:24.669Z,18.85
2018-07-16T06:04:24.634Z,18.83
2018-07-16T06:05:24.585Z,18.88
2018-07-16T06:06:24.547Z,18.98
2018-07-16T06:07:24.502Z,18.97
2018-07-16T06:08:24.463Z,19.05
2018-07-16T06:09:24.421Z,19.11
2018-07-16T06:10:24.382Z,19.11
2018-07-16T06:11:24.340Z,19.16
2018-07-16T06:12:24.296Z,19.19
2018-07-16T06:13:24.257Z,19.27
2018-07-16T06:14:24.272Z,19.27
2018-07-16T06:15:24.175Z,19.34
2018-07-16T06:16:24.133Z,19.26
2018-07-16T06:17:24.095Z,19.39
2018-07-16T06:18:24.053Z,19.32
2018-07-16T06:19:24.031Z,19.44
2018-07-16T06:20:24.027Z,19.48
2018-07-16T06:21:23.930Z,19.55
2018-07-16T06:22:23.891Z,19.56
2018-07-16T06:23:23.849Z,19.57
2018-07-16T06:24:23.807Z,19.60
2018-07-16T06:25:23.769Z,19.64
2018-07-16T06:26:23.728Z,19.74
2018-07-16T06:27:23.685Z,19.67
2018-07-16T06:28:23.646Z,19.70
2018-07-16T06:29:23.605Z,19.72
2018-07-16T06:30:23.565Z,19.87
2018-07-16T06:31:23.525Z,19.84
2018-07-16T06:32:23.548Z,19.85
2018-07-16T06:33:23.442Z,19.89
2018-07-16T06:34:23.402Z,19.87
2018-07-16T06:35:23.360Z,19.94
2018-07-16T06:36:23.321Z,20.04
2018-07-16T06:37:23.281Z,20.08
2018-07-16T06:38:23.241Z,20.07
2018-07-16T06:39:23.199Z,20.03
2018-07-16T06:40:23.227Z,20.19
2018-07-16T06:41:23.430Z,20.24
2018-07-16T06:42:23.077Z,20.21
2018-07-16T06:43:23.037Z,20.30
2018-07-16T06:44:22.997Z,20.36
2018-07-16T06:45:22.958Z,20.30
2018-07-16T06:46:22.919Z,20.39
2018-07-16T06:47:22.874Z,20.42
2018-07-16T06:48:22.835Z,20.42
2018-07-16T06:49:22.795Z,20.40
2018-07-16T06:50:22.754Z,20.50
2018-07-16T06:51:22.714Z,20.60
2018-07-16T06:52:22.676Z,20.56
2018-07-16T06:53:22.633Z,20.66
2018-07-16T06:54:22.602Z,20.73
2018-07-16T06:55:22.556Z,20.77
2018-07-16T06:56:22.514Z,20.75
2018-07-16T06:57:22.473Z,20.80
2018-07-16T06:58:22.434Z,20.83
2018-07-16T06:59:22.392Z,20.85
2018-07-16T07:00:22.359Z,20.95
2018-07-16T07:01:22.315Z,20.93
2018-07-16T07:02:22.286Z,21.07
2018-07-16T07:03:22.232Z,21.15
2018-07-16T07:04:22.191Z,21.15
2018-07-16T07:05:22.150Z,21.17
2018-07-16T07:06:22.111Z,21.17
2018-07-16T07:07:22.071Z,21.29
2018-07-16T07:08:22.032Z,21.32
2018-07-16T07:09:21.992Z,21.29
2018-07-16T07:10:21.960Z,21.29
2018-07-16T07:11:21.912Z,21.32
2018-07-16T07:12:21.872Z,21.33
2018-07-16T07:13:21.835Z,21.41
2018-07-16T07:14:21.796Z,21.43
2018-07-16T07:15:21.753Z,21.47
2018-07-16T07:16:21.711Z,21.54
2018-07-16T07:17:21.671Z,21.54
2018-07-16T07:18:21.635Z,21.60
2018-07-16T07:19:21.591Z,21.70
2018-07-16T07:20:21.554Z,21.70
2018-07-16T07:21:21.516Z,21.74
2018-07-16T07:22:21.474Z,21.81
2018-07-16T07:23:21.433Z,21.85
2018-07-16T07:24:21.408Z,21.97
2018-07-16T07:25:21.366Z,21.96
2018-07-16T07:26:21.322Z,22.00
2018-07-16T07:27:21.275Z,22.00
2018-07-16T07:28:21.235Z,22.04
2018-07-16T07:29:21.193Z,22.06
2018-07-16T07:30:21.157Z,22.21
2018-07-16T07:31:21.115Z,22.19
2018-07-16T07:32:21.077Z,22.26
2018-07-16T07:33:21.036Z,22.23
2018-07-16T07:34:21.017Z,22.34
2018-07-16T07:35:21.009Z,22.41
2018-07-16T07:36:20.917Z,22.49
2018-07-16T07:38:20.841Z,22.51
2018-07-16T07:39:20.806Z,22.61
2018-07-16T07:40:20.760Z,22.63
2018-07-16T07:41:20.721Z,22.73
2018-07-16T07:42:20.684Z,22.63
2018-07-16T07:43:20.643Z,22.76
2018-07-16T07:44:20.602Z,22.84
2018-07-16T07:45:20.569Z,22.81
2018-07-16T07:46:20.525Z,22.88
2018-07-16T07:47:20.485Z,22.84
2018-07-16T07:48:20.445Z,23.02
2018-07-16T07:49:20.406Z,23.02
2018-07-16T07:50:20.367Z,23.01
2018-07-16T07:51:20.328Z,23.13
2018-07-16T07:52:20.301Z,23.08
2018-07-16T07:53:20.250Z,23.08
2018-07-16T07:54:20.421Z,23.23
2018-07-16T07:55:20.627Z,23.21
2018-07-16T07:56:20.132Z,23.36
2018-07-16T07:57:20.096Z,23.45
2018-07-16T07:58:20.069Z,23.48
2018-07-16T07:59:20.017Z,23.49
2018-07-16T08:00:19.976Z,23.55
2018-07-16T08:01:19.942Z,23.64
2018-07-16T08:02:19.904Z,23.77
2018-07-16T08:03:19.876Z,23.73
2018-07-16T08:04:19.823Z,23.81
2018-07-16T08:05:19.785Z,23.96
2018-07-16T08:06:19.750Z,23.99
2018-07-16T08:07:19.710Z,24.14
2018-07-16T08:08:19.667Z,24.19
2018-07-16T08:09:19.627Z,24.26
2018-07-16T08:10:19.590Z,24.29
2018-07-16T08:11:19.552Z,24.36
2018-07-16T08:12:19.513Z,24.55
2018-07-16T08:13:19.475Z,24.56
2018-07-16T08:14:19.437Z,24.69
2018-07-16T08:15:19.400Z,24.78
2018-07-16T08:16:19.360Z,24.92
2018-07-16T08:17:19.321Z,25.01
2018-07-16T08:18:19.283Z,24.97
2018-07-16T08:19:19.271Z,25.09
2018-07-16T08:20:19.204Z,25.24
2018-07-16T08:21:19.172Z,25.26
2018-07-16T08:22:19.137Z,25.36
2018-07-16T08:23:19.094Z,25.48
2018-07-16T08:24:19.061Z,25.68
2018-07-16T08:25:19.017Z,25.62
2018-07-16T08:26:18.982Z,25.80
2018-07-16T08:27:18.942Z,25.88
2018-07-16T08:28:18.905Z,25.93
2018-07-16T08:29:18.863Z,26.08
2018-07-16T08:30:18.828Z,26.18
2018-07-16T08:31:18.794Z,26.24
2018-07-16T08:32:18.750Z,26.34
2018-07-16T08:33:18.771Z,26.44
2018-07-16T08:34:18.675Z,26.52
2018-07-16T08:35:18.635Z,26.61
2018-07-16T08:36:18.598Z,26.71
2018-07-16T08:37:18.565Z,26.70
2018-07-16T08:38:18.528Z,26.85
2018-07-16T08:39:18.486Z,26.89
2018-07-16T08:40:18.453Z,26.93
2018-07-16T08:41:18.410Z,27.07
2018-07-16T08:42:18.373Z,27.11
2018-07-16T08:43:18.338Z,27.15
2018-07-16T08:44:18.305Z,27.29
2018-07-16T08:45:18.262Z,27.29
2018-07-16T08:46:18.270Z,27.40
2018-07-16T08:47:18.187Z,27.43
2018-07-16T08:48:18.152Z,27.61
2018-07-16T08:49:18.119Z,27.63
2018-07-16T08:50:18.078Z,27.76
2018-07-16T08:51:18.039Z,27.79
2018-07-16T08:52:18.006Z,27.93
2018-07-16T08:53:17.971Z,27.88
2018-07-16T08:54:17.937Z,27.98
2018-07-16T08:55:17.898Z,27.98
2018-07-16T08:56:17.856Z,28.04
2018-07-16T08:57:17.819Z,28.22
2018-07-16T08:58:17.787Z,28.12
2018-07-16T08:59:17.838Z,28.20
2018-07-16T09:00:17.713Z,28.31
2018-07-16T09:01:17.671Z,28.34
2018-07-16T09:02:17.637Z,28.40
2018-07-16T09:03:17.599Z,28.56
2018-07-16T09:04:17.567Z,28.56
2018-07-16T09:05:17.531Z,28.59
2018-07-16T09:06:17.493Z,28.60
2018-07-16T09:07:17.643Z,28.72
2018-07-16T09:08:17.420Z,28.82
2018-07-16T09:09:17.384Z,28.84
2018-07-16T09:10:17.348Z,28.92
2018-07-16T09:11:17.337Z,28.97
2018-07-16T09:12:17.275Z,29.07
2018-07-16T09:13:17.361Z,29.12
2018-07-16T09:14:17.201Z,29.07
2018-07-16T09:15:17.164Z,29.27
2018-07-16T09:16:17.133Z,29.25
2018-07-16T09:17:17.093Z,29.37
2018-07-16T09:18:17.061Z,29.42
2018-07-16T09:19:17.051Z,29.44
2018-07-16T09:20:16.987Z,29.59
2018-07-16T09:21:16.954Z,29.62
2018-07-16T09:22:16.917Z,29.80
2018-07-16T09:23:16.884Z,29.89
2018-07-16T09:24:16.849Z,29.80
2018-07-16T09:25:16.814Z,29.92
2018-07-16T09:26:16.773Z,29.99
2018-07-16T09:27:16.737Z,30.01
2018-07-16T09:28:16.702Z,30.05
2018-07-16T09:29:16.667Z,30.21
2018-07-16T09:30:16.636Z,30.23
2018-07-16T09:31:16.594Z,30.24
2018-07-16T09:32:16.559Z,30.38
2018-07-16T09:33:16.524Z,30.38
2018-07-16T09:34:16.494Z,30.52
2018-07-16T09:35:16.458Z,30.58
2018-07-16T09:36:16.421Z,30.62
2018-07-16T09:37:16.385Z,30.63
2018-07-16T09:38:16.348Z,30.70
2018-07-16T09:39:16.313Z,30.69
2018-07-16T09:40:16.278Z,30.65
2018-07-16T09:41:16.245Z,30.69
2018-07-16T09:42:16.210Z,30.73
2018-07-16T09:43:16.171Z,30.65
2018-07-16T09:44:16.141Z,30.63
2018-07-16T09:45:16.105Z,30.65
2018-07-16T09:46:16.067Z,30.70
2018-07-16T09:47:16.032Z,30.62
2018-07-16T09:48:15.996Z,30.80
2018-07-16T09:49:15.963Z,30.89
2018-07-16T09:50:15.927Z,31.04
2018-07-16T09:51:15.893Z,31.11
2018-07-16T09:52:15.860Z,31.15
2018-07-16T09:53:15.822Z,31.13
2018-07-16T09:54:15.788Z,31.22
2018-07-16T09:55:15.759Z,31.25
2018-07-16T09:56:15.720Z,31.26
2018-07-16T09:57:15.684Z,31.32
2018-07-16T09:58:15.650Z,31.29
2018-07-16T09:59:15.619Z,31.39
2018-07-16T10:00:15.583Z,31.36
2018-07-16T10:01:15.546Z,31.48
2018-07-16T10:02:15.514Z,31.44
2018-07-16T10:03:15.478Z,31.52
2018-07-16T10:04:15.444Z,31.45
2018-07-16T10:05:15.409Z,31.47
2018-07-16T10:06:15.374Z,31.51
2018-07-16T10:07:15.345Z,31.51
2018-07-16T10:08:15.357Z,31.57
2018-07-16T10:09:15.274Z,31.57
2018-07-16T10:10:15.240Z,31.57
2018-07-16T10:11:15.207Z,31.67
2018-07-16T10:12:15.177Z,31.70
2018-07-16T10:13:15.140Z,31.72
2018-07-16T10:14:15.106Z,31.67
2018-07-16T10:15:15.068Z,31.74
2018-07-16T10:16:15.034Z,31.86
2018-07-16T10:17:14.997Z,31.86
2018-07-16T10:18:14.966Z,31.98
2018-07-16T10:19:14.931Z,31.98
2018-07-16T10:20:14.920Z,32.02
2018-07-16T10:21:14.872Z,32.02
2018-07-16T10:22:14.830Z,32.07
2018-07-16T10:23:14.798Z,32.05
2018-07-16T10:24:14.759Z,32.08
2018-07-16T10:25:14.729Z,32.04
2018-07-16T10:26:14.700Z,31.97
2018-07-16T10:27:14.661Z,31.92
2018-07-16T10:28:14.630Z,31.87
2018-07-16T10:29:14.596Z,31.90
2018-07-16T10:30:14.558Z,31.89
2018-07-16T10:31:14.523Z,31.90
2018-07-16T10:32:14.525Z,32.02
2018-07-16T10:33:14.460Z,32.00
2018-07-16T10:34:14.427Z,32.05
2018-07-16T10:35:14.387Z,32.11
2018-07-16T10:36:14.355Z,32.17
2018-07-16T10:37:14.320Z,32.27
2018-07-16T10:38:14.285Z,32.34
2018-07-16T10:39:14.273Z,32.34
2018-07-16T10:40:14.220Z,32.44
2018-07-16T10:41:14.185Z,32.46
2018-07-16T10:42:14.151Z,32.41
2018-07-16T10:43:14.120Z,32.45
2018-07-16T10:44:14.089Z,32.49
2018-07-16T10:45:14.050Z,32.54
2018-07-16T10:46:14.020Z,32.67
2018-07-16T10:47:13.987Z,32.73
2018-07-16T10:48:13.949Z,32.66
2018-07-16T10:49:13.917Z,32.66
2018-07-16T10:50:13.884Z,32.68
2018-07-16T10:51:13.849Z,32.67
2018-07-16T10:52:13.817Z,32.72
2018-07-16T10:53:13.915Z,32.79
2018-07-16T10:54:13.748Z,32.66
2018-07-16T10:55:13.765Z,32.71
2018-07-16T10:56:13.680Z,32.68
2018-07-16T10:57:13.655Z,32.71
2018-07-16T10:58:13.615Z,32.67
2018-07-16T10:59:13.580Z,32.72
2018-07-16T11:00:13.549Z,32.75
2018-07-16T11:01:13.516Z,32.72
2018-07-16T11:02:13.481Z,32.71
2018-07-16T11:03:13.449Z,32.68
2018-07-16T11:04:13.414Z,32.66
2018-07-16T11:05:13.386Z,32.66
2018-07-16T11:06:13.347Z,32.64
2018-07-16T11:07:13.313Z,32.63
2018-07-16T11:08:13.280Z,32.75
2018-07-16T11:09:13.249Z,32.72
2018-07-16T11:10:13.225Z,32.66
2018-07-16T11:11:13.179Z,32.66
2018-07-16T11:12:13.147Z,32.76
2018-07-16T11:13:13.113Z,32.76
2018-07-16T11:14:13.080Z,32.79
2018-07-16T11:15:13.052Z,32.83
2018-07-16T11:16:13.013Z,32.91
2018-07-16T11:17:12.985Z,33.09
2018-07-16T11:18:12.947Z,33.03
2018-07-16T11:19:12.914Z,33.04
2018-07-16T11:20:12.882Z,33.15
2018-07-16T11:21:12.851Z,33.26
2018-07-16T11:22:12.817Z,33.16
2018-07-16T11:23:12.780Z,33.17
2018-07-16T11:24:12.749Z,33.03
2018-07-16T11:25:12.717Z,32.94
2018-07-16T11:26:12.682Z,33.04
2018-07-16T11:27:12.650Z,33.04
2018-07-16T11:28:12.619Z,33.01
2018-07-16T11:29:12.584Z,33.04
2018-07-16T11:30:12.549Z,33.08
2018-07-16T11:31:12.541Z,33.04
2018-07-16T11:32:12.483Z,33.09
2018-07-16T11:33:12.450Z,33.05
2018-07-16T11:34:12.418Z,33.04
2018-07-16T11:35:12.389Z,33.12
2018-07-16T11:36:12.353Z,33.16
2018-07-16T11:37:12.351Z,33.09
2018-07-16T11:38:12.286Z,33.17
2018-07-16T11:39:12.251Z,33.13
2018-07-16T11:40:12.216Z,33.17
2018-07-16T11:41:12.188Z,33.16
2018-07-16T11:42:12.155Z,33.12
2018-07-16T11:43:12.120Z,33.08
2018-07-16T11:44:12.085Z,33.12
2018-07-16T11:45:12.054Z,33.03
2018-07-16T11:46:12.087Z,33.01
2018-07-16T11:47:11.998Z,32.98
2018-07-16T11:48:11.954Z,33.00
2018-07-16T11:49:11.921Z,32.93
2018-07-16T11:50:11.888Z,32.81
2018-07-16T11:51:11.860Z,32.86
2018-07-16T11:52:11.889Z,32.71
2018-07-16T11:53:11.790Z,32.49
2018-07-16T11:54:11.756Z,32.37
2018-07-16T11:55:11.722Z,32.57
2018-07-16T11:56:11.687Z,32.67
2018-07-16T11:57:11.657Z,32.79
2018-07-16T11:58:11.624Z,33.16
2018-07-16T11:59:11.656Z,33.29
2018-07-16T12:00:11.558Z,33.57
2018-07-16T12:01:11.522Z,33.82
2018-07-16T12:02:11.490Z,34.02
2018-07-16T12:03:11.459Z,34.28
2018-07-16T12:04:11.423Z,34.63
2018-07-16T12:05:11.445Z,35.03
2018-07-16T12:06:11.359Z,35.30
2018-07-16T12:07:11.322Z,35.64
2018-07-16T12:08:11.291Z,36.03
2018-07-16T12:09:11.254Z,36.38
2018-07-16T12:10:11.228Z,36.65
2018-07-16T12:11:11.193Z,36.92
2018-07-16T12:12:11.211Z,37.19
2018-07-16T12:13:11.132Z,37.50
2018-07-16T12:14:11.091Z,37.71
2018-07-16T12:15:11.060Z,38.00
2018-07-16T12:16:11.027Z,37.97
2018-07-16T12:17:10.995Z,38.20
2018-07-16T12:18:10.963Z,38.38
2018-07-16T12:19:10.927Z,38.47
2018-07-16T12:20:10.901Z,38.66
2018-07-16T12:21:10.862Z,38.69
2018-07-16T12:22:10.831Z,38.85
2018-07-16T12:23:10.799Z,39.00
2018-07-16T12:24:10.768Z,39.30
2018-07-16T12:25:10.741Z,39.48
2018-07-16T12:26:10.709Z,39.64
2018-07-16T12:27:10.673Z,39.71
2018-07-16T12:28:10.639Z,39.98
2018-07-16T12:29:10.609Z,40.36
2018-07-16T12:30:10.577Z,40.57
2018-07-16T12:31:10.544Z,40.81
2018-07-16T12:32:10.514Z,40.96
2018-07-16T12:33:10.481Z,40.89
2018-07-16T12:34:10.450Z,40.83
2018-07-16T12:35:10.423Z,40.62
2018-07-16T12:36:10.390Z,40.44
2018-07-16T12:37:10.358Z,40.14
2018-07-16T12:38:10.330Z,39.85
2018-07-16T12:39:10.297Z,39.61
2018-07-16T12:40:10.268Z,39.32
2018-07-16T12:41:10.239Z,39.00
2018-07-16T12:42:10.206Z,38.90
2018-07-16T12:43:10.176Z,38.62
2018-07-16T12:44:10.141Z,38.39
2018-07-16T12:45:10.112Z,38.29
2018-07-16T12:46:10.080Z,38.09
2018-07-16T12:47:10.047Z,37.90
2018-07-16T12:48:10.033Z,37.90
2018-07-16T12:49:09.986Z,37.66
2018-07-16T12:50:09.955Z,37.60
2018-07-16T12:51:09.922Z,37.48
2018-07-16T12:52:09.895Z,37.45
2018-07-16T12:53:09.863Z,37.36